sensor_id;sensor_type;location;lat;lon;timestamp;pressure;altitude;pressure_sealevel;temperature;humidity
7760;BME280;3924;48.830;9.262;2023-04-15T00:00:56;97638.91;;;7.08;68.33
7760;BME280;3924;48.830;9.262;2023-04-15T00:03:23;97634.38;;;7.04;68.25
7760;BME280;3924;48.830;9.262;2023-04-15T00:05:50;97633.56;;;7.03;68.45
7760;BME280;3924;48.830;9.262;2023-04-15T00:08:17;97633.56;;;7.03;68.23
7760;BME280;3924;48.830;9.262;2023-04-15T00:10:43;97626.34;;;6.99;68.50
7760;BME280;3924;48.830;9.262;2023-04-15T00:13:12;97637.72;;;6.96;68.78
7760;BME280;3924;48.830;9.262;2023-04-15T00:15:38;97632.91;;;6.93;68.66
7760;BME280;3924;48.830;9.262;2023-04-15T00:18:05;97632.91;;;6.93;68.74
7760;BME280;3924;48.830;9.262;2023-04-15T00:20:34;97645.56;;;6.92;68.74
7760;BME280;3924;48.830;9.262;2023-04-15T00:23:01;97638.09;;;6.89;68.91
7760;BME280;3924;48.830;9.262;2023-04-15T00:25:29;97631.91;;;6.89;68.92
7760;BME280;3924;48.830;9.262;2023-04-15T00:27:55;97639.19;;;6.88;68.93
7760;BME280;3924;48.830;9.262;2023-04-15T00:30:22;97635.69;;;6.88;68.99
7760;BME280;3924;48.830;9.262;2023-04-15T00:32:49;97634.09;;;6.87;69.18
7760;BME280;3924;48.830;9.262;2023-04-15T00:35:15;97631.66;;;6.85;69.13
7760;BME280;3924;48.830;9.262;2023-04-15T00:37:42;97629.06;;;6.80;69.36
7760;BME280;3924;48.830;9.262;2023-04-15T00:40:12;97624.25;;;6.77;69.46
7760;BME280;3924;48.830;9.262;2023-04-15T00:42:38;97625.09;;;6.72;69.61
7760;BME280;3924;48.830;9.262;2023-04-15T00:45:05;97627.59;;;6.69;69.64
7760;BME280;3924;48.830;9.262;2023-04-15T00:47:34;97624.16;;;6.63;69.73
7760;BME280;3924;48.830;9.262;2023-04-15T00:50:02;97627.94;;;6.62;70.04
7760;BME280;3924;48.830;9.262;2023-04-15T00:52:29;97623.66;;;6.61;69.80
7760;BME280;3924;48.830;9.262;2023-04-15T00:54:55;97623.38;;;6.63;70.09
7760;BME280;3924;48.830;9.262;2023-04-15T00:57:22;97629.56;;;6.63;69.99
7760;BME280;3924;48.830;9.262;2023-04-15T00:59:48;97624.47;;;6.62;70.09
7760;BME280;3924;48.830;9.262;2023-04-15T01:02:16;97628.81;;;6.57;70.15
7760;BME280;3924;48.830;9.262;2023-04-15T01:04:43;97624.88;;;6.50;70.14
7760;BME280;3924;48.830;9.262;2023-04-15T01:07:09;97626.81;;;6.44;70.32
7760;BME280;3924;48.830;9.262;2023-04-15T01:09:36;97628.25;;;6.37;70.44
7760;BME280;3924;48.830;9.262;2023-04-15T01:12:03;97632.84;;;6.36;70.63
7760;BME280;3924;48.830;9.262;2023-04-15T01:14:30;97629.94;;;6.33;70.56
7760;BME280;3924;48.830;9.262;2023-04-15T01:16:57;97630.75;;;6.33;70.78
7760;BME280;3924;48.830;9.262;2023-04-15T01:19:23;97637.50;;;6.30;70.51
7760;BME280;3924;48.830;9.262;2023-04-15T01:21:50;97625.94;;;6.30;70.51
7760;BME280;3924;48.830;9.262;2023-04-15T01:24:17;97635.38;;;6.27;70.93
7760;BME280;3924;48.830;9.262;2023-04-15T01:26:44;97633.25;;;6.24;70.80
7760;BME280;3924;48.830;9.262;2023-04-15T01:29:11;97627.31;;;6.27;71.11
7760;BME280;3924;48.830;9.262;2023-04-15T01:31:38;97628.09;;;6.28;70.94
7760;BME280;3924;48.830;9.262;2023-04-15T01:34:04;97628.41;;;6.26;71.03
7760;BME280;3924;48.830;9.262;2023-04-15T01:36:31;97625.25;;;6.19;71.35
7760;BME280;3924;48.830;9.262;2023-04-15T01:38:57;97627.19;;;6.14;71.31
7760;BME280;3924;48.830;9.262;2023-04-15T01:41:28;97632.34;;;6.10;71.63
7760;BME280;3924;48.830;9.262;2023-04-15T01:43:54;97626.97;;;6.10;71.47
7760;BME280;3924;48.830;9.262;2023-04-15T01:46:21;97630.75;;;6.09;71.59
7760;BME280;3924;48.830;9.262;2023-04-15T01:48:48;97630.22;;;6.07;71.52
7760;BME280;3924;48.830;9.262;2023-04-15T01:51:14;97618.44;;;6.03;71.62
7760;BME280;3924;48.830;9.262;2023-04-15T01:53:41;97623.31;;;6.01;71.66
7760;BME280;3924;48.830;9.262;2023-04-15T01:56:08;97631.09;;;6.02;72.00
7760;BME280;3924;48.830;9.262;2023-04-15T01:58:34;97630.88;;;5.99;71.89
7760;BME280;3924;48.830;9.262;2023-04-15T02:01:01;97623.88;;;5.98;71.80
7760;BME280;3924;48.830;9.262;2023-04-15T02:03:28;97622.84;;;5.94;72.03
7760;BME280;3924;48.830;9.262;2023-04-15T02:05:55;97616.38;;;5.90;72.25
7760;BME280;3924;48.830;9.262;2023-04-15T02:08:22;97615.38;;;5.86;72.25
7760;BME280;3924;48.830;9.262;2023-04-15T02:10:48;97614.88;;;5.84;72.26
7760;BME280;3924;48.830;9.262;2023-04-15T02:13:15;97614.56;;;5.85;72.23
7760;BME280;3924;48.830;9.262;2023-04-15T02:15:47;97613.19;;;5.88;72.18
7760;BME280;3924;48.830;9.262;2023-04-15T02:18:15;97611.34;;;5.83;72.05
7760;BME280;3924;48.830;9.262;2023-04-15T02:20:41;97615.41;;;5.81;72.35
7760;BME280;3924;48.830;9.262;2023-04-15T02:23:09;97609.53;;;5.79;72.50
7760;BME280;3924;48.830;9.262;2023-04-15T02:25:36;97618.91;;;5.81;72.45
7760;BME280;3924;48.830;9.262;2023-04-15T02:28:04;97618.16;;;5.75;72.49
7760;BME280;3924;48.830;9.262;2023-04-15T02:30:32;97611.22;;;5.69;72.48
7760;BME280;3924;48.830;9.262;2023-04-15T02:33:00;97614.50;;;5.66;72.75
7760;BME280;3924;48.830;9.262;2023-04-15T02:35:27;97610.19;;;5.65;72.93
7760;BME280;3924;48.830;9.262;2023-04-15T02:37:53;97613.97;;;5.64;72.72
7760;BME280;3924;48.830;9.262;2023-04-15T02:40:20;97616.66;;;5.64;72.86
7760;BME280;3924;48.830;9.262;2023-04-15T02:42:46;97613.22;;;5.59;72.81
7760;BME280;3924;48.830;9.262;2023-04-15T02:45:13;97613.50;;;5.57;73.12
7760;BME280;3924;48.830;9.262;2023-04-15T02:47:39;97610.28;;;5.55;72.92
7760;BME280;3924;48.830;9.262;2023-04-15T02:50:08;97609.25;;;5.51;73.18
7760;BME280;3924;48.830;9.262;2023-04-15T02:52:35;97606.88;;;5.49;73.35
7760;BME280;3924;48.830;9.262;2023-04-15T02:55:01;97613.25;;;5.54;73.06
7760;BME280;3924;48.830;9.262;2023-04-15T02:57:29;97615.16;;;5.53;73.17
7760;BME280;3924;48.830;9.262;2023-04-15T02:59:56;97620.81;;;5.52;73.32
7760;BME280;3924;48.830;9.262;2023-04-15T03:02:23;97610.59;;;5.48;73.27
7760;BME280;3924;48.830;9.262;2023-04-15T03:04:49;97613.84;;;5.51;73.29
7760;BME280;3924;48.830;9.262;2023-04-15T03:07:17;97613.53;;;5.52;73.42
7760;BME280;3924;48.830;9.262;2023-04-15T03:09:44;97613.50;;;5.57;73.46
7760;BME280;3924;48.830;9.262;2023-04-15T03:12:11;97621.00;;;5.60;73.56
7760;BME280;3924;48.830;9.262;2023-04-15T03:14:37;97616.69;;;5.59;73.17
7760;BME280;3924;48.830;9.262;2023-04-15T03:17:04;97617.28;;;5.56;73.63
7760;BME280;3924;48.830;9.262;2023-04-15T03:19:30;97620.53;;;5.53;73.67
7760;BME280;3924;48.830;9.262;2023-04-15T03:21:57;97618.63;;;5.54;73.74
7760;BME280;3924;48.830;9.262;2023-04-15T03:24:23;97618.34;;;5.55;73.66
7760;BME280;3924;48.830;9.262;2023-04-15T03:26:50;97614.06;;;5.54;73.71
7760;BME280;3924;48.830;9.262;2023-04-15T03:29:16;97619.97;;;5.56;73.84
7760;BME280;3924;48.830;9.262;2023-04-15T03:31:43;97619.44;;;5.54;73.90
7760;BME280;3924;48.830;9.262;2023-04-15T03:34:09;97617.84;;;5.53;73.91
7760;BME280;3924;48.830;9.262;2023-04-15T03:36:36;97612.47;;;5.53;74.04
7760;BME280;3924;48.830;9.262;2023-04-15T03:39:02;97606.59;;;5.46;73.94
7760;BME280;3924;48.830;9.262;2023-04-15T03:41:29;97603.97;;;5.41;73.83
7760;BME280;3924;48.830;9.262;2023-04-15T03:43:56;97609.91;;;5.38;73.81
7760;BME280;3924;48.830;9.262;2023-04-15T03:46:22;97598.91;;;5.34;74.14
7760;BME280;3924;48.830;9.262;2023-04-15T03:48:49;97598.91;;;5.34;74.21
7760;BME280;3924;48.830;9.262;2023-04-15T03:51:15;97609.44;;;5.31;74.28
7760;BME280;3924;48.830;9.262;2023-04-15T03:53:42;97604.59;;;5.28;74.11
7760;BME280;3924;48.830;9.262;2023-04-15T03:56:08;97611.34;;;5.25;74.22
7760;BME280;3924;48.830;9.262;2023-04-15T03:58:35;97609.97;;;5.28;74.58
7760;BME280;3924;48.830;9.262;2023-04-15T04:01:01;97618.28;;;5.31;74.51
7760;BME280;3924;48.830;9.262;2023-04-15T04:03:28;97618.59;;;5.30;74.25
7760;BME280;3924;48.830;9.262;2023-04-15T04:05:55;97626.09;;;5.28;74.63
7760;BME280;3924;48.830;9.262;2023-04-15T04:08:21;97617.53;;;5.26;74.56
7760;BME280;3924;48.830;9.262;2023-04-15T04:10:48;97622.63;;;5.27;74.71
7760;BME280;3924;48.830;9.262;2023-04-15T04:13:14;97620.97;;;5.31;74.64
7760;BME280;3924;48.830;9.262;2023-04-15T04:15:41;97628.22;;;5.36;74.65
7760;BME280;3924;48.830;9.262;2023-04-15T04:18:08;97622.84;;;5.36;74.59
7760;BME280;3924;48.830;9.262;2023-04-15T04:20:34;97620.69;;;5.33;74.63
7760;BME280;3924;48.830;9.262;2023-04-15T04:23:00;97625.56;;;5.31;74.48
7760;BME280;3924;48.830;9.262;2023-04-15T04:25:27;97628.28;;;5.26;74.77
7760;BME280;3924;48.830;9.262;2023-04-15T04:27:53;97632.66;;;5.16;74.76
7760;BME280;3924;48.830;9.262;2023-04-15T04:30:20;97632.41;;;5.13;74.98
7760;BME280;3924;48.830;9.262;2023-04-15T04:32:46;97629.72;;;5.13;75.11
7760;BME280;3924;48.830;9.262;2023-04-15T04:35:13;97628.91;;;5.12;75.20
7760;BME280;3924;48.830;9.262;2023-04-15T04:37:39;97632.44;;;5.08;75.08
7760;BME280;3924;48.830;9.262;2023-04-15T04:40:06;97644.00;;;5.08;75.16
7760;BME280;3924;48.830;9.262;2023-04-15T04:42:33;97646.69;;;5.08;75.12
7760;BME280;3924;48.830;9.262;2023-04-15T04:44:59;97645.34;;;5.06;75.30
7760;BME280;3924;48.830;9.262;2023-04-15T04:47:26;97645.63;;;5.04;75.30
7760;BME280;3924;48.830;9.262;2023-04-15T04:49:52;97636.50;;;5.05;75.26
7760;BME280;3924;48.830;9.262;2023-04-15T04:52:19;97644.00;;;5.08;75.32
7760;BME280;3924;48.830;9.262;2023-04-15T04:54:45;97642.94;;;5.04;75.15
7760;BME280;3924;48.830;9.262;2023-04-15T04:57:12;97650.19;;;5.04;75.52
7760;BME280;3924;48.830;9.262;2023-04-15T04:59:40;97646.47;;;5.00;75.44
7760;BME280;3924;48.830;9.262;2023-04-15T05:02:06;97640.56;;;4.98;75.34
7760;BME280;3924;48.830;9.262;2023-04-15T05:04:33;97651.31;;;4.98;75.59
7760;BME280;3924;48.830;9.262;2023-04-15T05:06:59;97640.84;;;4.96;75.55
7760;BME280;3924;48.830;9.262;2023-04-15T05:09:26;97642.47;;;4.97;75.45
7760;BME280;3924;48.830;9.262;2023-04-15T05:11:53;97645.16;;;4.97;75.56
7760;BME280;3924;48.830;9.262;2023-04-15T05:14:19;97640.28;;;4.99;75.64
7760;BME280;3924;48.830;9.262;2023-04-15T05:16:48;97633.31;;;4.98;75.34
7760;BME280;3924;48.830;9.262;2023-04-15T05:19:15;97632.22;;;4.99;75.44
7760;BME280;3924;48.830;9.262;2023-04-15T05:21:41;97638.38;;;5.05;75.34
7760;BME280;3924;48.830;9.262;2023-04-15T05:24:08;97642.38;;;5.07;75.33
7760;BME280;3924;48.830;9.262;2023-04-15T05:26:34;97645.84;;;5.08;75.27
7760;BME280;3924;48.830;9.262;2023-04-15T05:29:01;97647.75;;;5.07;75.67
7760;BME280;3924;48.830;9.262;2023-04-15T05:31:28;97645.06;;;5.07;75.56
7760;BME280;3924;48.830;9.262;2023-04-15T05:33:54;97645.13;;;5.02;75.58
7760;BME280;3924;48.830;9.262;2023-04-15T05:36:21;97651.03;;;4.99;75.38
7760;BME280;3924;48.830;9.262;2023-04-15T05:38:47;97660.16;;;4.98;75.31
7760;BME280;3924;48.830;9.262;2023-04-15T05:41:13;97646.75;;;4.98;75.50
7760;BME280;3924;48.830;9.262;2023-04-15T05:43:44;97645.91;;;5.03;75.51
7760;BME280;3924;48.830;9.262;2023-04-15T05:46:11;97646.69;;;5.08;75.38
7760;BME280;3924;48.830;9.262;2023-04-15T05:48:38;97649.88;;;5.15;75.33
7760;BME280;3924;48.830;9.262;2023-04-15T05:51:04;97647.59;;;5.28;75.44
7760;BME280;3924;48.830;9.262;2023-04-15T05:53:31;97652.09;;;5.37;75.15
7760;BME280;3924;48.830;9.262;2023-04-15T05:55:58;97656.09;;;5.40;74.78
7760;BME280;3924;48.830;9.262;2023-04-15T05:58:24;97662.22;;;5.51;74.93
7760;BME280;3924;48.830;9.262;2023-04-15T06:00:51;97657.00;;;5.64;74.68
7760;BME280;3924;48.830;9.262;2023-04-15T06:03:17;97651.47;;;5.80;74.54
7760;BME280;3924;48.830;9.262;2023-04-15T06:05:44;97656.16;;;5.98;74.19
7760;BME280;3924;48.830;9.262;2023-04-15T06:08:10;97659.19;;;6.15;73.79
7760;BME280;3924;48.830;9.262;2023-04-15T06:10:37;97660.66;;;6.32;73.73
7760;BME280;3924;48.830;9.262;2023-04-15T06:13:04;97661.56;;;6.46;73.35
7760;BME280;3924;48.830;9.262;2023-04-15T06:15:32;97656.47;;;6.63;73.18
7760;BME280;3924;48.830;9.262;2023-04-15T06:17:58;97662.75;;;6.77;72.99
7760;BME280;3924;48.830;9.262;2023-04-15T06:20:25;97660.66;;;6.74;72.75
7760;BME280;3924;48.830;9.262;2023-04-15T06:22:51;97660.00;;;6.82;72.57
7760;BME280;3924;48.830;9.262;2023-04-15T06:25:17;97667.00;;;6.83;72.65
7760;BME280;3924;48.830;9.262;2023-04-15T06:27:44;97664.22;;;6.89;72.63
7760;BME280;3924;48.830;9.262;2023-04-15T06:30:11;97674.56;;;6.81;72.62
7760;BME280;3924;48.830;9.262;2023-04-15T06:32:38;97676.28;;;6.72;72.51
7760;BME280;3924;48.830;9.262;2023-04-15T06:35:04;97678.25;;;6.67;72.82
7760;BME280;3924;48.830;9.262;2023-04-15T06:37:31;97663.34;;;6.74;72.99
7760;BME280;3924;48.830;9.262;2023-04-15T06:39:57;97681.63;;;6.96;72.70
7760;BME280;3924;48.830;9.262;2023-04-15T06:42:24;97675.72;;;7.13;72.33
7760;BME280;3924;48.830;9.262;2023-04-15T06:44:50;97677.06;;;7.34;71.93
7760;BME280;3924;48.830;9.262;2023-04-15T06:47:17;97683.31;;;7.49;71.51
7760;BME280;3924;48.830;9.262;2023-04-15T06:49:45;97686.63;;;7.40;71.49
7760;BME280;3924;48.830;9.262;2023-04-15T06:52:11;97687.91;;;7.29;71.56
7760;BME280;3924;48.830;9.262;2023-04-15T06:54:38;97692.63;;;7.19;71.78
7760;BME280;3924;48.830;9.262;2023-04-15T06:57:05;97687.59;;;7.12;72.02
7760;BME280;3924;48.830;9.262;2023-04-15T06:59:32;97684.63;;;7.13;72.00
7760;BME280;3924;48.830;9.262;2023-04-15T07:01:58;97684.91;;;7.12;72.12
7760;BME280;3924;48.830;9.262;2023-04-15T07:04:25;97680.63;;;7.11;72.26
7760;BME280;3924;48.830;9.262;2023-04-15T07:06:53;97679.75;;;7.16;72.09
7760;BME280;3924;48.830;9.262;2023-04-15T07:09:22;97674.38;;;7.16;72.30
7760;BME280;3924;48.830;9.262;2023-04-15T07:11:48;97673.56;;;7.15;71.87
7760;BME280;3924;48.830;9.262;2023-04-15T07:14:14;97673.56;;;7.15;72.08
7760;BME280;3924;48.830;9.262;2023-04-15T07:16:41;97671.97;;;7.14;72.14
7760;BME280;3924;48.830;9.262;2023-04-15T07:19:08;97676.25;;;7.15;72.21
7760;BME280;3924;48.830;9.262;2023-04-15T07:21:34;97672.16;;;7.18;72.10
7760;BME280;3924;48.830;9.262;2023-04-15T07:24:00;97665.91;;;7.22;72.05
7760;BME280;3924;48.830;9.262;2023-04-15T07:26:27;97673.34;;;7.30;71.95
7760;BME280;3924;48.830;9.262;2023-04-15T07:28:53;97669.28;;;7.47;71.47
7760;BME280;3924;48.830;9.262;2023-04-15T07:31:20;97671.81;;;7.76;71.09
7760;BME280;3924;48.830;9.262;2023-04-15T07:33:47;97664.84;;;8.16;70.34
7760;BME280;3924;48.830;9.262;2023-04-15T07:36:13;97662.81;;;8.54;69.57
7760;BME280;3924;48.830;9.262;2023-04-15T07:38:40;97671.66;;;8.96;68.86
7760;BME280;3924;48.830;9.262;2023-04-15T07:41:07;97664.75;;;9.26;68.42
7760;BME280;3924;48.830;9.262;2023-04-15T07:43:34;97671.31;;;9.47;67.86
7760;BME280;3924;48.830;9.262;2023-04-15T07:46:00;97667.25;;;9.58;67.72
7760;BME280;3924;48.830;9.262;2023-04-15T07:48:27;97668.66;;;9.56;67.81
7760;BME280;3924;48.830;9.262;2023-04-15T07:50:53;97668.56;;;9.61;67.71
7760;BME280;3924;48.830;9.262;2023-04-15T07:53:20;97669.88;;;9.72;67.61
7760;BME280;3924;48.830;9.262;2023-04-15T07:55:46;97666.94;;;9.82;67.16
7760;BME280;3924;48.830;9.262;2023-04-15T07:58:12;97659.88;;;10.04;66.90
7760;BME280;3924;48.830;9.262;2023-04-15T08:00:39;97664.81;;;10.33;66.22
7760;BME280;3924;48.830;9.262;2023-04-15T08:03:06;97664.72;;;10.47;65.96
7760;BME280;3924;48.830;9.262;2023-04-15T08:05:33;97660.09;;;10.47;65.89
7760;BME280;3924;48.830;9.262;2023-04-15T08:07:59;97659.50;;;10.67;65.45
7760;BME280;3924;48.830;9.262;2023-04-15T08:10:28;97658.13;;;10.96;64.88
7760;BME280;3924;48.830;9.262;2023-04-15T08:12:54;97652.91;;;11.26;64.49
7760;BME280;3924;48.830;9.262;2023-04-15T08:15:21;97653.19;;;11.50;64.00
7760;BME280;3924;48.830;9.262;2023-04-15T08:17:48;97649.34;;;11.68;63.54
7760;BME280;3924;48.830;9.262;2023-04-15T08:20:15;97653.34;;;11.88;63.23
7760;BME280;3924;48.830;9.262;2023-04-15T08:22:41;97649.31;;;12.03;62.76
7760;BME280;3924;48.830;9.262;2023-04-15T08:25:08;97653.13;;;12.11;62.42
7760;BME280;3924;48.830;9.262;2023-04-15T08:27:35;97643.47;;;12.30;62.20
7760;BME280;3924;48.830;9.262;2023-04-15T08:30:02;97643.25;;;12.44;61.70
7760;BME280;3924;48.830;9.262;2023-04-15T08:32:30;97647.59;;;12.37;61.64
7760;BME280;3924;48.830;9.262;2023-04-15T08:34:57;97649.16;;;12.08;61.99
7760;BME280;3924;48.830;9.262;2023-04-15T08:37:23;97649.94;;;12.00;62.07
7760;BME280;3924;48.830;9.262;2023-04-15T08:39:50;97650.41;;;12.11;61.70
7760;BME280;3924;48.830;9.262;2023-04-15T08:42:18;97651.09;;;12.37;61.23
7760;BME280;3924;48.830;9.262;2023-04-15T08:44:48;97656.31;;;12.51;60.67
7760;BME280;3924;48.830;9.262;2023-04-15T08:47:19;97652.38;;;12.40;60.76
7760;BME280;3924;48.830;9.262;2023-04-15T08:49:46;97653.03;;;12.37;60.83
7760;BME280;3924;48.830;9.262;2023-04-15T08:52:19;97662.22;;;12.53;60.33
7760;BME280;3924;48.830;9.262;2023-04-15T08:54:46;97662.88;;;12.50;60.09
7760;BME280;3924;48.830;9.262;2023-04-15T08:57:13;97655.75;;;12.66;59.65
7760;BME280;3924;48.830;9.262;2023-04-15T08:59:41;97648.91;;;12.90;59.26
7760;BME280;3924;48.830;9.262;2023-04-15T09:02:10;97651.97;;;13.09;58.91
7760;BME280;3924;48.830;9.262;2023-04-15T09:04:37;97651.44;;;13.15;58.54
7760;BME280;3924;48.830;9.262;2023-04-15T09:07:03;97659.34;;;13.08;58.75
7760;BME280;3924;48.830;9.262;2023-04-15T09:09:30;97653.22;;;12.91;58.95
7760;BME280;3924;48.830;9.262;2023-04-15T09:11:56;97659.72;;;12.77;59.20
7760;BME280;3924;48.830;9.262;2023-04-15T09:14:23;97659.88;;;12.72;59.15
7760;BME280;3924;48.830;9.262;2023-04-15T09:16:57;97660.63;;;12.52;59.46
7760;BME280;3924;48.830;9.262;2023-04-15T09:19:24;97651.00;;;12.54;59.63
7760;BME280;3924;48.830;9.262;2023-04-15T09:21:55;97660.97;;;12.80;59.06
7760;BME280;3924;48.830;9.262;2023-04-15T09:24:33;97659.66;;;12.86;58.75
7760;BME280;3924;48.830;9.262;2023-04-15T09:27:01;97664.94;;;13.12;58.39
7760;BME280;3924;48.830;9.262;2023-04-15T09:29:28;97672.16;;;13.08;58.31
7760;BME280;3924;48.830;9.262;2023-04-15T09:31:55;97669.06;;;12.88;58.67
7760;BME280;3924;48.830;9.262;2023-04-15T09:34:34;97670.59;;;12.77;58.61
7760;BME280;3924;48.830;9.262;2023-04-15T09:37:02;97671.84;;;12.80;58.69
7760;BME280;3924;48.830;9.262;2023-04-15T09:39:48;97672.56;;;12.98;58.30
7760;BME280;3924;48.830;9.262;2023-04-15T09:42:15;97676.94;;;13.11;58.10
7760;BME280;3924;48.830;9.262;2023-04-15T09:44:51;97681.03;;;13.17;57.69
7760;BME280;3924;48.830;9.262;2023-04-15T09:47:28;97678.81;;;13.19;57.54
7760;BME280;3924;48.830;9.262;2023-04-15T09:49:58;97689.41;;;13.12;57.76
7760;BME280;3924;48.830;9.262;2023-04-15T09:52:26;97679.97;;;13.09;57.62
7760;BME280;3924;48.830;9.262;2023-04-15T09:54:53;97683.22;;;13.32;56.97
7760;BME280;3924;48.830;9.262;2023-04-15T09:57:21;97684.13;;;13.36;56.75
7760;BME280;3924;48.830;9.262;2023-04-15T09:59:49;97684.63;;;13.38;56.79
7760;BME280;3924;48.830;9.262;2023-04-15T10:02:18;97682.56;;;13.35;56.70
7760;BME280;3924;48.830;9.262;2023-04-15T10:04:47;97684.81;;;13.33;56.67
7760;BME280;3924;48.830;9.262;2023-04-15T10:07:14;97689.22;;;13.17;56.94
7760;BME280;3924;48.830;9.262;2023-04-15T10:09:44;97687.75;;;13.20;56.71
7760;BME280;3924;48.830;9.262;2023-04-15T10:12:12;97692.09;;;13.62;56.00
7760;BME280;3924;48.830;9.262;2023-04-15T10:14:41;97687.63;;;14.12;54.94
7760;BME280;3924;48.830;9.262;2023-04-15T10:17:10;97692.72;;;14.46;54.22
7760;BME280;3924;48.830;9.262;2023-04-15T10:19:38;97685.41;;;14.38;54.24
7760;BME280;3924;48.830;9.262;2023-04-15T10:22:05;97680.16;;;14.21;54.19
7760;BME280;3924;48.830;9.262;2023-04-15T10:24:33;97685.09;;;14.07;54.37
7760;BME280;3924;48.830;9.262;2023-04-15T10:27:02;97690.44;;;14.03;54.58
7760;BME280;3924;48.830;9.262;2023-04-15T10:29:30;97690.91;;;14.05;54.31
7760;BME280;3924;48.830;9.262;2023-04-15T10:31:58;97683.75;;;14.01;54.26
7760;BME280;3924;48.830;9.262;2023-04-15T10:34:25;97691.91;;;14.01;54.05
7760;BME280;3924;48.830;9.262;2023-04-15T10:36:58;97697.19;;;14.18;53.75
7760;BME280;3924;48.830;9.262;2023-04-15T10:44:35;97698.56;;;14.24;53.08
7760;BME280;3924;48.830;9.262;2023-04-15T10:47:10;97695.69;;;14.66;52.62
7760;BME280;3924;48.830;9.262;2023-04-15T10:49:51;97704.56;;;14.87;52.11
7760;BME280;3924;48.830;9.262;2023-04-15T10:52:23;97696.06;;;14.76;52.08
7760;BME280;3924;48.830;9.262;2023-04-15T10:55:01;97707.66;;;14.40;52.49
7760;BME280;3924;48.830;9.262;2023-04-15T10:57:34;97707.53;;;14.24;52.41
7760;BME280;3924;48.830;9.262;2023-04-15T11:00:09;97707.00;;;14.43;52.24
7760;BME280;3924;48.830;9.262;2023-04-15T11:02:53;97699.00;;;14.84;51.34
7760;BME280;3924;48.830;9.262;2023-04-15T11:05:47;97702.19;;;14.98;51.02
7760;BME280;3924;48.830;9.262;2023-04-15T11:08:10;97698.59;;;15.34;50.22
7760;BME280;3924;48.830;9.262;2023-04-15T11:13:04;97702.25;;;15.26;50.14
7760;BME280;3924;48.830;9.262;2023-04-15T11:15:46;97696.94;;;15.05;50.25
7760;BME280;3924;48.830;9.262;2023-04-15T11:18:15;97698.19;;;14.95;50.33
7760;BME280;3924;48.830;9.262;2023-04-15T11:20:43;97684.09;;;15.05;50.26
7760;BME280;3924;48.830;9.262;2023-04-15T11:23:10;97691.78;;;15.16;49.99
7760;BME280;3924;48.830;9.262;2023-04-15T11:25:41;97691.25;;;15.10;49.97
7760;BME280;3924;48.830;9.262;2023-04-15T11:28:10;97701.38;;;14.97;50.35
7760;BME280;3924;48.830;9.262;2023-04-15T11:30:38;97694.56;;;14.79;50.57
7760;BME280;3924;48.830;9.262;2023-04-15T11:33:07;97708.53;;;14.65;50.79
7760;BME280;3924;48.830;9.262;2023-04-15T11:35:34;97702.34;;;14.44;51.06
7760;BME280;3924;48.830;9.262;2023-04-15T11:38:05;97712.50;;;14.10;51.58
7760;BME280;3924;48.830;9.262;2023-04-15T11:40:34;97715.72;;;13.91;51.82
7760;BME280;3924;48.830;9.262;2023-04-15T11:43:12;97716.16;;;13.81;51.93
7760;BME280;3924;48.830;9.262;2023-04-15T11:45:56;97717.59;;;13.79;52.04
7760;BME280;3924;48.830;9.262;2023-04-15T11:48:33;97712.94;;;13.79;51.95
7760;BME280;3924;48.830;9.262;2023-04-15T11:51:05;97718.78;;;13.90;51.71
7760;BME280;3924;48.830;9.262;2023-04-15T11:53:48;97716.44;;;14.01;51.20
7760;BME280;3924;48.830;9.262;2023-04-15T11:56:20;97712.03;;;14.08;51.16
7760;BME280;3924;48.830;9.262;2023-04-15T11:58:51;97721.25;;;14.16;50.98
7760;BME280;3924;48.830;9.262;2023-04-15T12:01:18;97734.75;;;14.12;50.93
7760;BME280;3924;48.830;9.262;2023-04-15T12:03:45;97734.53;;;13.84;51.30
7760;BME280;3924;48.830;9.262;2023-04-15T12:06:24;97745.06;;;13.74;51.35
7760;BME280;3924;48.830;9.262;2023-04-15T12:09:03;97743.19;;;13.65;51.70
7760;BME280;3924;48.830;9.262;2023-04-15T12:11:45;97743.91;;;13.75;51.61
7760;BME280;3924;48.830;9.262;2023-04-15T12:16:44;97749.22;;;13.71;51.54
7760;BME280;3924;48.830;9.262;2023-04-15T12:19:26;97757.34;;;13.59;51.49
7760;BME280;3924;48.830;9.262;2023-04-15T12:22:02;97755.88;;;13.40;51.73
7760;BME280;3924;48.830;9.262;2023-04-15T12:24:33;97767.81;;;13.27;52.00
7760;BME280;3924;48.830;9.262;2023-04-15T12:27:03;97774.25;;;13.14;52.36
7760;BME280;3924;48.830;9.262;2023-04-15T12:29:30;97789.06;;;12.96;52.64
7760;BME280;3924;48.830;9.262;2023-04-15T12:32:18;97811.63;;;12.32;53.92
7760;BME280;3924;48.830;9.262;2023-04-15T12:34:52;97843.34;;;11.45;56.17
7760;BME280;3924;48.830;9.262;2023-04-15T12:37:22;97845.66;;;10.81;58.01
7760;BME280;3924;48.830;9.262;2023-04-15T12:39:48;97861.34;;;10.39;59.02
7760;BME280;3924;48.830;9.262;2023-04-15T12:42:16;97873.50;;;10.05;60.13
7760;BME280;3924;48.830;9.262;2023-04-15T12:44:43;97870.84;;;9.78;60.89
7760;BME280;3924;48.830;9.262;2023-04-15T12:47:11;97871.19;;;9.63;61.33
7760;BME280;3924;48.830;9.262;2023-04-15T12:49:38;97856.66;;;9.58;61.77
7760;BME280;3924;48.830;9.262;2023-04-15T12:52:05;97847.53;;;9.68;61.72
7760;BME280;3924;48.830;9.262;2023-04-15T12:54:31;97845.16;;;9.89;61.58
7760;BME280;3924;48.830;9.262;2023-04-15T12:56:58;97857.63;;;10.12;61.42
7760;BME280;3924;48.830;9.262;2023-04-15T12:59:26;97859.25;;;10.36;61.11
7760;BME280;3924;48.830;9.262;2023-04-15T13:01:52;97856.41;;;10.63;60.98
7760;BME280;3924;48.830;9.262;2023-04-15T13:04:20;97853.03;;;10.89;60.78
7760;BME280;3924;48.830;9.262;2023-04-15T13:06:47;97861.88;;;11.03;60.22
7760;BME280;3924;48.830;9.262;2023-04-15T13:09:13;97861.25;;;11.06;60.30
7760;BME280;3924;48.830;9.262;2023-04-15T13:11:41;97849.78;;;11.09;60.08
7760;BME280;3924;48.830;9.262;2023-04-15T13:14:08;97848.06;;;11.22;59.95
7760;BME280;3924;48.830;9.262;2023-04-15T13:16:37;97846.69;;;11.33;59.82
7760;BME280;3924;48.830;9.262;2023-04-15T13:19:03;97839.50;;;11.46;59.71
7760;BME280;3924;48.830;9.262;2023-04-15T13:21:31;97848.16;;;11.57;59.55
7760;BME280;3924;48.830;9.262;2023-04-15T13:24:00;97857.91;;;11.66;59.36
7760;BME280;3924;48.830;9.262;2023-04-15T13:26:27;97861.47;;;11.75;59.21
7760;BME280;3924;48.830;9.262;2023-04-15T13:28:54;97862.78;;;11.87;58.81
7760;BME280;3924;48.830;9.262;2023-04-15T13:31:21;97862.94;;;11.99;58.63
7760;BME280;3924;48.830;9.262;2023-04-15T13:33:47;97861.06;;;12.08;58.41
7760;BME280;3924;48.830;9.262;2023-04-15T13:36:14;97870.47;;;12.19;58.13
7760;BME280;3924;48.830;9.262;2023-04-15T13:38:40;97878.47;;;12.24;58.15
7760;BME280;3924;48.830;9.262;2023-04-15T13:41:07;97886.16;;;12.22;57.95
7760;BME280;3924;48.830;9.262;2023-04-15T13:43:33;97885.03;;;12.15;58.20